createdAt,value
2024-02-29T00:02:05.348Z,14.82
2024-02-29T00:04:31.485Z,14.83
2024-02-29T00:06:57.668Z,14.83
2024-02-29T00:09:23.865Z,14.83
2024-02-29T00:11:50.019Z,14.81
2024-02-29T00:14:16.180Z,14.81
2024-02-29T00:16:42.319Z,14.81
2024-02-29T00:19:08.550Z,14.82
2024-02-29T00:21:34.861Z,14.82
2024-02-29T00:24:01.029Z,14.81
2024-02-29T00:26:27.199Z,14.81
2024-02-29T00:28:53.383Z,14.81
2024-02-29T00:31:19.557Z,14.81
2024-02-29T00:33:45.827Z,14.82
2024-02-29T00:36:12.023Z,14.81
2024-02-29T00:38:38.214Z,14.81
2024-02-29T00:41:04.363Z,14.81
2024-02-29T00:43:30.550Z,14.81
2024-02-29T00:45:56.738Z,14.80
2024-02-29T00:48:22.909Z,14.80
2024-02-29T00:50:49.101Z,14.79
2024-02-29T00:53:15.240Z,14.79
2024-02-29T00:55:41.422Z,14.78
2024-02-29T00:58:07.728Z,14.78
2024-02-29T01:00:33.966Z,14.77
2024-02-29T01:03:00.143Z,14.77
2024-02-29T01:05:26.579Z,14.77
2024-02-29T01:07:52.718Z,14.77
2024-02-29T01:10:18.941Z,14.77
2024-02-29T01:12:45.264Z,14.76
2024-02-29T01:15:11.427Z,14.76
2024-02-29T01:17:37.652Z,14.75
2024-02-29T01:20:03.864Z,14.75
2024-02-29T01:22:30.006Z,14.75
2024-02-29T01:24:56.208Z,14.74
2024-02-29T01:27:22.372Z,14.74
2024-02-29T01:29:48.514Z,14.74
2024-02-29T01:32:19.128Z,14.75
2024-02-29T01:34:52.341Z,14.74
2024-02-29T01:37:18.708Z,14.74
2024-02-29T01:39:44.906Z,14.73
2024-02-29T01:42:11.196Z,14.74
2024-02-29T01:44:37.330Z,14.73
2024-02-29T01:47:05.073Z,14.73
2024-02-29T01:49:31.232Z,14.72
2024-02-29T01:51:57.393Z,14.72
2024-02-29T01:54:23.527Z,14.72
2024-02-29T01:56:49.686Z,14.71
2024-02-29T01:59:15.874Z,14.71
2024-02-29T02:01:42.195Z,14.71
2024-02-29T02:04:08.494Z,14.72
2024-02-29T02:06:34.776Z,14.71
2024-02-29T02:09:00.918Z,14.72
2024-02-29T02:11:27.124Z,14.71
2024-02-29T02:13:53.257Z,14.70
2024-02-29T02:16:19.466Z,14.71
2024-02-29T02:18:45.690Z,14.71
2024-02-29T02:21:11.892Z,14.69
2024-02-29T02:23:38.090Z,14.69
2024-02-29T02:26:04.333Z,14.69
2024-02-29T02:28:30.498Z,14.69
2024-02-29T02:30:56.752Z,14.70
2024-02-29T02:33:22.995Z,14.68
2024-02-29T02:35:49.134Z,14.69
2024-02-29T02:38:15.276Z,14.68
2024-02-29T02:40:41.449Z,14.69
2024-02-29T02:43:07.720Z,14.68
2024-02-29T02:45:34.002Z,14.68
2024-02-29T02:48:00.292Z,14.68
2024-02-29T02:50:26.524Z,14.68
2024-02-29T02:52:52.698Z,14.68
2024-02-29T02:55:18.970Z,14.68
2024-02-29T02:57:45.197Z,14.68
2024-02-29T03:00:11.353Z,14.68
2024-02-29T03:02:37.533Z,14.68
2024-02-29T03:05:03.689Z,14.67
2024-02-29T03:07:29.832Z,14.67
2024-02-29T03:09:56.091Z,14.65
2024-02-29T03:12:22.271Z,14.66
2024-02-29T03:14:48.432Z,14.65
2024-02-29T03:17:14.596Z,14.65
2024-02-29T03:19:40.776Z,14.65
2024-02-29T03:22:06.988Z,14.65
2024-02-29T03:24:33.212Z,14.65
2024-02-29T03:26:59.362Z,14.65
2024-02-29T03:29:25.534Z,14.65
2024-02-29T03:31:51.703Z,14.64
2024-02-29T03:34:17.896Z,14.64
2024-02-29T03:36:44.125Z,14.64
2024-02-29T03:39:10.397Z,14.64
2024-02-29T03:41:36.576Z,14.63
2024-02-29T03:44:02.735Z,14.63
2024-02-29T03:46:28.889Z,14.62
2024-02-29T03:48:55.089Z,14.62
2024-02-29T03:51:21.239Z,14.62
2024-02-29T03:53:47.391Z,14.62
2024-02-29T03:56:13.531Z,14.61
2024-02-29T03:58:39.658Z,14.62
2024-02-29T04:01:05.893Z,14.61
2024-02-29T04:03:32.101Z,14.60
2024-02-29T04:05:58.277Z,14.61
2024-02-29T04:08:24.492Z,14.61
2024-02-29T04:10:50.714Z,14.61
2024-02-29T04:13:16.931Z,14.60
2024-02-29T04:15:44.751Z,14.59
2024-02-29T04:18:11.446Z,14.58
2024-02-29T04:20:37.605Z,14.59
2024-02-29T04:23:03.771Z,14.59
2024-02-29T04:25:29.952Z,14.58
2024-02-29T04:27:56.128Z,14.57
2024-02-29T04:30:22.355Z,14.57
2024-02-29T04:32:48.498Z,14.58
2024-02-29T04:35:14.667Z,14.57
2024-02-29T04:37:40.960Z,14.57
2024-02-29T04:40:09.676Z,14.58
2024-02-29T04:42:37.036Z,14.57
2024-02-29T04:45:03.295Z,14.56
2024-02-29T04:47:29.496Z,14.56
2024-02-29T04:49:55.647Z,14.57
2024-02-29T04:52:21.833Z,14.56
2024-02-29T04:54:48.036Z,14.56
2024-02-29T04:57:14.267Z,14.56
2024-02-29T04:59:40.415Z,14.55
2024-02-29T05:02:07.717Z,14.56
2024-02-29T05:04:34.034Z,14.56
2024-02-29T05:07:00.250Z,14.54
2024-02-29T05:09:26.497Z,14.54
2024-02-29T05:11:52.644Z,14.55
2024-02-29T05:14:18.819Z,14.55
2024-02-29T05:16:44.964Z,14.56
2024-02-29T05:19:11.186Z,14.54
2024-02-29T05:21:37.399Z,14.54
2024-02-29T05:24:03.588Z,14.54
2024-02-29T05:26:29.761Z,14.53
2024-02-29T05:28:55.975Z,14.53
2024-02-29T05:31:22.108Z,14.53
2024-02-29T05:33:48.286Z,14.53
2024-02-29T05:36:14.487Z,14.53
2024-02-29T05:38:40.793Z,14.52
2024-02-29T05:41:07.025Z,14.52
2024-02-29T05:43:36.040Z,14.52
2024-02-29T05:46:02.705Z,14.52
2024-02-29T05:48:28.900Z,14.52
2024-02-29T05:50:55.056Z,14.52
2024-02-29T05:53:21.215Z,14.51
2024-02-29T05:55:47.345Z,14.50
2024-02-29T05:58:13.659Z,14.51
2024-02-29T06:00:39.950Z,14.51
2024-02-29T06:03:06.136Z,14.51
2024-02-29T06:05:32.403Z,14.50
2024-02-29T06:07:58.604Z,14.50
2024-02-29T06:10:24.771Z,14.50
2024-02-29T06:12:50.951Z,14.50
2024-02-29T06:15:17.112Z,14.50
2024-02-29T06:17:43.309Z,14.50
2024-02-29T06:20:09.479Z,14.51
2024-02-29T06:22:35.646Z,14.50
2024-02-29T06:25:01.867Z,14.49
2024-02-29T06:27:28.054Z,14.51
2024-02-29T06:29:54.221Z,14.49
2024-02-29T06:32:20.365Z,14.50
2024-02-29T06:34:46.565Z,14.50
2024-02-29T06:37:12.925Z,14.50
2024-02-29T06:39:39.270Z,14.49
2024-02-29T06:42:05.475Z,14.48
2024-02-29T06:44:31.636Z,14.48
2024-02-29T06:46:57.782Z,14.49
2024-02-29T06:49:24.032Z,14.49
2024-02-29T06:51:50.240Z,14.49
2024-02-29T06:54:16.474Z,14.49
2024-02-29T06:56:42.619Z,14.47
2024-02-29T06:59:08.792Z,14.47
2024-02-29T07:01:35.126Z,14.48
2024-02-29T07:04:01.433Z,14.48
2024-02-29T07:06:27.584Z,14.46
2024-02-29T07:08:53.716Z,14.47
2024-02-29T07:11:20.181Z,14.48
2024-02-29T07:13:46.362Z,14.47
2024-02-29T07:16:12.542Z,14.46
2024-02-29T07:18:38.783Z,14.45
2024-02-29T07:21:04.951Z,14.45
2024-02-29T07:23:31.094Z,14.46
2024-02-29T07:25:57.271Z,14.45
2024-02-29T07:28:23.434Z,14.46
2024-02-29T07:30:49.607Z,14.45
2024-02-29T07:33:15.797Z,14.46
2024-02-29T07:35:41.972Z,14.45
2024-02-29T07:38:08.159Z,14.45
2024-02-29T07:40:34.363Z,14.45
2024-02-29T07:43:00.608Z,14.45
2024-02-29T07:45:26.780Z,14.46
2024-02-29T07:47:52.994Z,14.46
2024-02-29T07:50:19.204Z,14.46
2024-02-29T07:52:45.366Z,14.46
2024-02-29T07:55:11.775Z,14.45
2024-02-29T07:57:38.108Z,14.46
2024-02-29T08:00:04.311Z,14.45
2024-02-29T08:02:30.482Z,14.44
2024-02-29T08:04:56.620Z,14.45
2024-02-29T08:07:22.815Z,14.45
2024-02-29T08:09:49.025Z,14.45
2024-02-29T08:12:15.170Z,14.44
2024-02-29T08:14:41.335Z,14.45
2024-02-29T08:17:07.511Z,14.45
2024-02-29T08:19:33.731Z,14.44
2024-02-29T08:21:59.906Z,14.44
2024-02-29T08:24:26.180Z,14.44
2024-02-29T08:26:54.696Z,14.43
2024-02-29T08:29:20.820Z,14.44
2024-02-29T08:31:47.031Z,14.44
2024-02-29T08:34:13.285Z,14.43
2024-02-29T08:36:39.560Z,14.43
2024-02-29T08:39:05.771Z,14.43
2024-02-29T08:41:31.931Z,14.42
2024-02-29T08:43:58.066Z,14.43
2024-02-29T08:46:24.449Z,14.43
2024-02-29T08:48:50.683Z,14.44
2024-02-29T08:51:16.864Z,14.43
2024-02-29T08:53:43.024Z,14.42
2024-02-29T08:56:09.262Z,14.42
2024-02-29T08:58:35.416Z,14.43
2024-02-29T09:01:01.661Z,14.43
2024-02-29T09:03:27.919Z,14.43
2024-02-29T09:05:54.073Z,14.43
2024-02-29T09:08:22.746Z,14.43
2024-02-29T09:10:49.179Z,14.42
2024-02-29T09:13:25.229Z,14.42
2024-02-29T09:15:56.410Z,14.43
2024-02-29T09:18:22.583Z,14.43
2024-02-29T09:20:48.735Z,14.42
2024-02-29T09:23:19.332Z,14.44
2024-02-29T09:25:45.460Z,14.43
2024-02-29T09:28:11.710Z,14.43
2024-02-29T09:30:37.943Z,14.42
2024-02-29T09:33:05.448Z,14.43
2024-02-29T09:35:31.723Z,14.42
2024-02-29T09:37:57.957Z,14.43
2024-02-29T09:40:24.224Z,14.43
2024-02-29T09:42:59.679Z,14.43
2024-02-29T09:45:26.013Z,14.43
2024-02-29T09:47:56.737Z,14.43
2024-02-29T09:50:24.981Z,14.43
2024-02-29T09:53:10.361Z,14.43
2024-02-29T09:55:36.864Z,14.44
2024-02-29T09:58:04.755Z,14.44
2024-02-29T10:00:30.975Z,14.44
2024-02-29T10:02:57.112Z,14.45
2024-02-29T10:05:23.328Z,14.44
2024-02-29T10:07:49.536Z,14.44
2024-02-29T10:10:15.840Z,14.45
2024-02-29T10:12:42.062Z,14.45
2024-02-29T10:15:08.247Z,14.45
2024-02-29T10:17:34.612Z,14.44
2024-02-29T10:20:00.853Z,14.45
2024-02-29T10:22:27.096Z,14.46
2024-02-29T10:24:53.409Z,14.45
2024-02-29T10:27:19.658Z,14.45
2024-02-29T10:29:45.799Z,14.46
2024-02-29T10:32:11.967Z,14.46
2024-02-29T10:34:38.946Z,14.46
2024-02-29T10:37:05.655Z,14.46
2024-02-29T10:39:31.938Z,14.47
2024-02-29T10:41:58.133Z,14.47
2024-02-29T10:44:24.298Z,14.47
2024-02-29T10:46:53.322Z,14.47
2024-02-29T10:49:19.642Z,14.47
2024-02-29T10:51:48.732Z,14.48
2024-02-29T10:54:22.516Z,14.47
2024-02-29T10:56:49.319Z,14.48
2024-02-29T10:59:15.632Z,14.47
2024-02-29T11:04:23.233Z,14.49
2024-02-29T11:06:49.869Z,14.49
2024-02-29T11:09:16.161Z,14.49
2024-02-29T11:11:42.312Z,14.48
2024-02-29T11:14:08.438Z,14.49
2024-02-29T11:16:34.581Z,14.49
2024-02-29T11:19:00.796Z,14.50
2024-02-29T11:21:28.246Z,14.51
2024-02-29T11:23:54.383Z,14.51
2024-02-29T11:26:23.402Z,14.50
2024-02-29T11:28:49.553Z,14.51
2024-02-29T11:31:15.973Z,14.50
2024-02-29T11:33:42.308Z,14.51
2024-02-29T11:36:08.532Z,14.51
2024-02-29T11:41:26.505Z,14.51
2024-02-29T11:46:35.999Z,14.52
2024-02-29T11:49:02.312Z,14.53
2024-02-29T11:51:36.484Z,14.54
2024-02-29T11:54:03.064Z,14.53
2024-02-29T11:56:29.475Z,14.54
2024-02-29T11:58:58.493Z,14.54
2024-02-29T12:01:25.113Z,14.55
2024-02-29T12:03:51.394Z,14.55
2024-02-29T12:06:26.527Z,14.55
2024-02-29T12:08:52.717Z,14.55
2024-02-29T12:11:23.561Z,14.55
2024-02-29T12:13:52.803Z,14.56
2024-02-29T12:16:19.076Z,14.57
2024-02-29T12:18:45.330Z,14.56
2024-02-29T12:21:11.636Z,14.57
2024-02-29T12:23:37.850Z,14.56
2024-02-29T12:26:04.097Z,14.57
2024-02-29T12:28:32.208Z,14.56
2024-02-29T12:31:01.503Z,14.58
2024-02-29T12:33:30.134Z,14.58
2024-02-29T12:38:36.562Z,14.57
2024-02-29T12:41:07.819Z,14.58
2024-02-29T12:43:36.160Z,14.59
2024-02-29T12:46:03.392Z,14.59
2024-02-29T12:48:31.421Z,14.59
2024-02-29T12:50:57.642Z,14.58
2024-02-29T12:53:23.798Z,14.61
2024-02-29T12:55:55.423Z,14.61
2024-02-29T12:58:24.594Z,14.61
2024-02-29T13:00:51.201Z,14.60
2024-02-29T13:03:17.553Z,14.62
2024-02-29T13:05:53.041Z,14.62
2024-02-29T13:08:19.308Z,14.62
2024-02-29T13:10:56.816Z,14.62
2024-02-29T13:13:23.175Z,14.63
2024-02-29T13:15:52.766Z,14.64
2024-02-29T13:18:23.252Z,14.64
2024-02-29T13:20:54.205Z,14.63
2024-02-29T13:23:21.672Z,14.64
2024-02-29T13:25:48.076Z,14.64
2024-02-29T13:28:16.029Z,14.64
2024-02-29T13:33:32.421Z,14.65
2024-02-29T13:35:59.857Z,14.64
2024-02-29T13:38:28.807Z,14.64
2024-02-29T13:40:57.806Z,14.65
2024-02-29T13:43:24.272Z,14.66
2024-02-29T13:45:50.489Z,14.66
2024-02-29T13:48:16.738Z,14.66
2024-02-29T13:50:42.901Z,14.66
2024-02-29T13:53:09.028Z,14.67
2024-02-29T13:55:35.276Z,14.68
2024-02-29T13:58:01.496Z,14.68
2024-02-29T14:00:27.679Z,14.68
2024-02-29T14:02:53.845Z,14.68
2024-02-29T14:05:19.972Z,14.68
2024-02-29T14:07:48.724Z,14.68
2024-02-29T14:10:15.494Z,14.70
2024-02-29T14:12:41.858Z,14.69
2024-02-29T14:15:08.007Z,14.70
2024-02-29T14:17:34.244Z,14.69
2024-02-29T14:20:00.474Z,14.69
2024-02-29T14:22:26.705Z,14.70
2024-02-29T14:24:52.942Z,14.69
2024-02-29T14:27:19.321Z,14.70
2024-02-29T14:29:55.040Z,14.71
2024-02-29T14:32:25.057Z,14.71
2024-02-29T14:34:51.215Z,14.71
2024-02-29T14:37:17.414Z,14.71
2024-02-29T14:39:51.206Z,14.70
2024-02-29T14:42:17.530Z,14.72
2024-02-29T14:44:52.025Z,14.72
2024-02-29T14:47:18.236Z,14.73
2024-02-29T14:49:44.381Z,14.73
2024-02-29T14:52:10.575Z,14.73
2024-02-29T14:54:36.767Z,14.74
2024-02-29T14:57:02.916Z,14.73
2024-02-29T14:59:31.436Z,14.73
2024-02-29T15:01:57.729Z,14.73
2024-02-29T15:04:24.031Z,14.73
2024-02-29T15:06:50.351Z,14.74
2024-02-29T15:09:19.343Z,14.74
2024-02-29T15:11:45.729Z,14.75
2024-02-29T15:14:12.026Z,14.75
2024-02-29T15:16:38.205Z,14.75
2024-02-29T15:19:04.423Z,14.75
2024-02-29T15:21:30.639Z,14.75
2024-02-29T15:23:56.779Z,14.75
2024-02-29T15:26:22.905Z,14.75
2024-02-29T15:28:49.184Z,14.76
2024-02-29T15:31:27.328Z,14.76
2024-02-29T15:33:53.598Z,14.75
2024-02-29T15:36:19.816Z,14.77
2024-02-29T15:38:45.960Z,14.77
2024-02-29T15:41:12.115Z,14.76
2024-02-29T15:43:38.286Z,14.76
2024-02-29T15:46:04.475Z,14.77
2024-02-29T15:48:30.671Z,14.78
2024-02-29T15:50:56.823Z,14.78
2024-02-29T15:53:22.962Z,14.77
2024-02-29T15:55:56.495Z,14.77
2024-02-29T16:01:11.628Z,14.78
2024-02-29T16:03:47.344Z,14.78
2024-02-29T16:06:27.566Z,14.78
2024-02-29T16:08:53.737Z,14.80
2024-02-29T16:11:19.979Z,14.80
2024-02-29T16:13:49.007Z,14.79
2024-02-29T16:16:15.232Z,14.78
2024-02-29T16:18:41.457Z,14.79
2024-02-29T16:21:07.643Z,14.79
2024-02-29T16:23:33.813Z,14.79
2024-02-29T16:25:59.974Z,14.80
2024-02-29T16:28:26.145Z,14.80
2024-02-29T16:30:52.418Z,14.80
2024-02-29T16:33:18.624Z,14.81
2024-02-29T16:35:44.842Z,14.80
2024-02-29T16:38:11.024Z,14.81
2024-02-29T16:40:37.352Z,14.80
2024-02-29T16:43:03.637Z,14.81
2024-02-29T16:45:29.801Z,14.81
2024-02-29T16:47:56.555Z,14.81
2024-02-29T16:50:22.719Z,14.81
2024-02-29T16:52:48.865Z,14.81
2024-02-29T16:55:15.094Z,14.82
2024-02-29T16:57:41.274Z,14.81
2024-02-29T17:00:07.428Z,14.81
2024-02-29T17:02:33.667Z,14.81
2024-02-29T17:04:59.833Z,14.81
2024-02-29T17:07:26.131Z,14.81
2024-02-29T17:09:52.328Z,14.83
2024-02-29T17:12:18.483Z,14.82
2024-02-29T17:14:44.640Z,14.82
2024-02-29T17:17:10.831Z,14.83
2024-02-29T17:19:37.007Z,14.82
2024-02-29T17:22:03.225Z,14.83
2024-02-29T17:24:29.706Z,14.83
2024-02-29T17:26:55.845Z,14.82
2024-02-29T17:29:22.016Z,14.83
2024-02-29T17:31:48.180Z,14.82
2024-02-29T17:34:14.342Z,14.82
2024-02-29T17:36:40.530Z,14.82
2024-02-29T17:39:06.695Z,14.82
2024-02-29T17:41:32.851Z,14.83
2024-02-29T17:43:59.045Z,14.84
2024-02-29T17:46:25.258Z,14.84
2024-02-29T17:48:51.502Z,14.83
2024-02-29T17:51:17.657Z,14.83
2024-02-29T17:53:43.884Z,14.84
2024-02-29T17:56:19.152Z,14.84
2024-02-29T17:58:45.336Z,14.83
2024-02-29T18:01:11.592Z,14.84
2024-02-29T18:03:37.802Z,14.83
2024-02-29T18:06:04.039Z,14.83
2024-02-29T18:08:30.179Z,14.84
2024-02-29T18:10:56.364Z,14.83
2024-02-29T18:13:22.695Z,14.83
2024-02-29T18:15:49.090Z,14.84
2024-02-29T18:18:15.402Z,14.83
2024-02-29T18:20:45.651Z,14.82
2024-02-29T18:23:11.796Z,14.83
2024-02-29T18:25:38.025Z,14.82
2024-02-29T18:28:04.243Z,14.82
2024-02-29T18:30:30.442Z,14.83
2024-02-29T18:32:56.629Z,14.83
2024-02-29T18:35:22.796Z,14.84
2024-02-29T18:37:48.939Z,14.82
2024-02-29T18:40:15.141Z,14.82
2024-02-29T18:42:41.377Z,14.82
2024-02-29T18:45:07.582Z,14.83
2024-02-29T18:47:42.618Z,14.83
2024-02-29T18:50:08.816Z,14.83
2024-02-29T18:52:34.981Z,14.83
2024-02-29T18:55:01.301Z,14.82
2024-02-29T18:57:27.604Z,14.82
2024-02-29T18:59:53.732Z,14.81
2024-02-29T19:02:19.991Z,14.83
2024-02-29T19:04:46.139Z,14.82
2024-02-29T19:07:12.296Z,14.82
2024-02-29T19:09:38.475Z,14.82
2024-02-29T19:12:04.628Z,14.82
2024-02-29T19:14:30.770Z,14.82
2024-02-29T19:16:56.945Z,14.81
2024-02-29T19:19:23.143Z,14.81
2024-02-29T19:21:49.589Z,14.81
2024-02-29T19:24:15.856Z,14.81
2024-02-29T19:26:42.029Z,14.81
2024-02-29T19:29:08.167Z,14.81
2024-02-29T19:31:34.370Z,14.81
2024-02-29T19:34:01.020Z,14.80
2024-02-29T19:36:27.301Z,14.81
2024-02-29T19:38:53.464Z,14.79
2024-02-29T19:41:20.628Z,14.80
2024-02-29T19:43:46.770Z,14.80
2024-02-29T19:46:12.997Z,14.79
2024-02-29T19:48:39.213Z,14.80
2024-02-29T19:51:05.361Z,14.79
2024-02-29T19:53:31.500Z,14.79
2024-02-29T19:55:57.652Z,14.80
2024-02-29T19:58:23.889Z,14.79
2024-02-29T20:00:50.155Z,14.80
2024-02-29T20:03:16.343Z,14.79
2024-02-29T20:05:42.488Z,14.78
2024-02-29T20:08:08.689Z,14.80
2024-02-29T20:10:34.953Z,14.79
2024-02-29T20:13:01.163Z,14.80
2024-02-29T20:15:27.336Z,14.79
2024-02-29T20:17:53.568Z,14.79
2024-02-29T20:20:19.757Z,14.78
2024-02-29T20:22:45.896Z,14.78
2024-02-29T20:25:12.096Z,14.79
2024-02-29T20:27:38.276Z,14.80
2024-02-29T20:30:04.433Z,14.79
2024-02-29T20:32:30.627Z,14.79
2024-02-29T20:34:56.801Z,14.80
2024-02-29T20:37:22.989Z,14.79
2024-02-29T20:39:49.219Z,14.79
2024-02-29T20:42:15.369Z,14.79
2024-02-29T20:44:41.508Z,14.78
2024-02-29T20:47:07.703Z,14.79
2024-02-29T20:49:33.930Z,14.79
2024-02-29T20:52:00.184Z,14.78
2024-02-29T20:54:26.370Z,14.78
2024-02-29T20:56:52.500Z,14.77
2024-02-29T20:59:18.638Z,14.77
2024-02-29T21:01:44.835Z,14.77
2024-02-29T21:04:11.040Z,14.77
2024-02-29T21:06:37.211Z,14.78
2024-02-29T21:09:03.407Z,14.77
2024-02-29T21:11:29.617Z,14.77
2024-02-29T21:13:55.785Z,14.77
2024-02-29T21:16:21.984Z,14.76
2024-02-29T21:18:48.170Z,14.78
2024-02-29T21:21:16.361Z,14.77
2024-02-29T21:23:43.748Z,14.77
2024-02-29T21:26:09.894Z,14.77
2024-02-29T21:28:36.076Z,14.76
2024-02-29T21:31:02.289Z,14.77
2024-02-29T21:33:28.485Z,14.76
2024-02-29T21:35:55.952Z,14.76
2024-02-29T21:38:23.795Z,14.76
2024-02-29T21:40:49.942Z,14.75
2024-02-29T21:43:16.093Z,14.75
2024-02-29T21:45:42.369Z,14.76
2024-02-29T21:48:08.716Z,14.76
2024-02-29T21:50:34.980Z,14.75
2024-02-29T21:53:01.129Z,14.75
2024-02-29T21:55:27.292Z,14.75
2024-02-29T21:57:53.447Z,14.75
2024-02-29T22:00:19.623Z,14.75
2024-02-29T22:02:45.790Z,14.74
2024-02-29T22:05:11.938Z,14.74
2024-02-29T22:07:38.186Z,14.74
2024-02-29T22:10:04.369Z,14.74
2024-02-29T22:12:30.603Z,14.73
2024-02-29T22:14:56.750Z,14.73
2024-02-29T22:17:22.897Z,14.74
2024-02-29T22:19:49.053Z,14.74
2024-02-29T22:22:15.285Z,14.73
2024-02-29T22:24:41.481Z,14.74
2024-02-29T22:27:07.617Z,14.73
2024-02-29T22:29:33.787Z,14.73
2024-02-29T22:31:59.931Z,14.73
2024-02-29T22:34:26.202Z,14.73
2024-02-29T22:36:52.754Z,14.73
2024-02-29T22:39:21.269Z,14.73
2024-02-29T22:41:56.370Z,14.73
2024-02-29T22:44:23.677Z,14.73
2024-02-29T22:46:49.840Z,14.73
2024-02-29T22:49:16.043Z,14.72
2024-02-29T22:51:44.728Z,14.71
2024-02-29T22:54:10.862Z,14.72
2024-02-29T22:56:37.019Z,14.72
2024-02-29T22:59:03.178Z,14.71
2024-02-29T23:01:29.491Z,14.71
2024-02-29T23:03:55.717Z,14.71
2024-02-29T23:06:21.910Z,14.70
2024-02-29T23:08:48.040Z,14.71
2024-02-29T23:11:14.270Z,14.71
2024-02-29T23:13:40.453Z,14.71
2024-02-29T23:16:06.609Z,14.69
2024-02-29T23:18:32.750Z,14.70
2024-02-29T23:20:58.896Z,14.71
2024-02-29T23:23:25.040Z,14.71
2024-02-29T23:25:51.181Z,14.70
2024-02-29T23:28:17.557Z,14.71
2024-02-29T23:30:43.704Z,14.71
2024-02-29T23:33:10.131Z,14.71
2024-02-29T23:35:36.326Z,14.70
2024-02-29T23:38:02.675Z,14.71
2024-02-29T23:40:28.902Z,14.71
2024-02-29T23:42:55.350Z,14.70
2024-02-29T23:45:21.511Z,14.70
2024-02-29T23:47:47.724Z,14.70
2024-02-29T23:50:14.093Z,14.70
2024-02-29T23:52:40.389Z,14.70
2024-02-29T23:55:06.568Z,14.71
2024-02-29T23:57:32.745Z,14.70
2024-02-29T23:59:58.992Z,14.69
